createdAt,value
2023-01-15T00:02:31.345Z,10.10
2023-01-15T00:05:17.061Z,8.20
2023-01-15T00:08:02.618Z,8.15
2023-01-15T00:10:48.363Z,7.28
2023-01-15T00:13:33.709Z,7.70
2023-01-15T00:16:21.903Z,7.65
2023-01-15T00:19:10.971Z,6.75
2023-01-15T00:21:58.217Z,4.93
2023-01-15T00:25:12.858Z,4.78
2023-01-15T00:28:00.332Z,5.25
2023-01-15T00:30:47.045Z,5.32
2023-01-15T00:33:32.298Z,6.18
2023-01-15T00:36:17.812Z,5.97
2023-01-15T00:39:04.093Z,5.60
2023-01-15T00:41:50.402Z,5.60
2023-01-15T00:44:35.962Z,6.05
2023-01-15T00:47:21.568Z,6.18
2023-01-15T00:50:10.212Z,5.68
2023-01-15T00:52:55.742Z,5.75
2023-01-15T00:55:40.985Z,5.63
2023-01-15T00:58:26.360Z,5.28
2023-01-15T01:01:11.707Z,7.15
2023-01-15T01:03:57.477Z,5.97
2023-01-15T01:06:43.159Z,6.82
2023-01-15T01:09:30.185Z,7.10
2023-01-15T01:12:15.559Z,6.68
2023-01-15T01:15:00.944Z,6.95
2023-01-15T01:17:46.612Z,6.07
2023-01-15T01:20:34.095Z,7.18
2023-01-15T01:23:19.983Z,7.32
2023-01-15T01:26:05.487Z,6.97
2023-01-15T01:28:53.185Z,7.20
2023-01-15T01:31:38.664Z,6.30
2023-01-15T01:34:23.910Z,6.13
2023-01-15T01:37:09.217Z,8.00
2023-01-15T01:39:55.592Z,7.78
2023-01-15T01:42:41.162Z,7.03
2023-01-15T01:45:33.343Z,5.95
2023-01-15T01:48:24.888Z,6.90
2023-01-15T01:51:10.852Z,7.10
2023-01-15T01:53:59.837Z,5.75
2023-01-15T01:56:45.941Z,6.68
2023-01-15T01:59:32.300Z,7.55
2023-01-15T02:02:22.036Z,6.72
2023-01-15T02:05:08.671Z,6.50
2023-01-15T02:07:54.439Z,7.30
2023-01-15T02:10:41.111Z,6.57
2023-01-15T02:13:58.676Z,6.88
2023-01-15T02:17:01.084Z,6.18
2023-01-15T02:20:10.540Z,7.13
2023-01-15T02:23:17.722Z,9.80
2023-01-15T02:26:24.789Z,8.05
2023-01-15T02:29:20.039Z,7.25
2023-01-15T02:32:11.212Z,7.43
2023-01-15T02:35:04.064Z,8.30
2023-01-15T02:37:57.047Z,8.18
2023-01-15T02:40:43.912Z,8.00
2023-01-15T02:43:35.137Z,7.72
2023-01-15T02:46:26.553Z,7.77
2023-01-15T02:49:16.520Z,7.77
2023-01-15T02:52:08.980Z,6.90
2023-01-15T02:55:09.655Z,8.07
2023-01-15T02:58:04.274Z,7.35
2023-01-15T03:00:56.727Z,7.60
2023-01-15T03:03:53.189Z,7.68
2023-01-15T03:06:44.544Z,7.75
2023-01-15T03:09:31.644Z,8.18
2023-01-15T03:12:29.848Z,8.32
2023-01-15T03:15:40.235Z,7.82
2023-01-15T03:18:29.187Z,8.05
2023-01-15T03:21:20.897Z,7.75
2023-01-15T03:24:08.551Z,7.80
2023-01-15T03:26:54.453Z,9.40
2023-01-15T03:29:45.057Z,7.90
2023-01-15T03:32:31.367Z,7.88
2023-01-15T03:35:56.026Z,6.93
2023-01-15T03:38:50.919Z,8.43
2023-01-15T03:42:18.161Z,8.55
2023-01-15T03:45:30.379Z,7.43
2023-01-15T03:48:28.783Z,8.38
2023-01-15T03:51:28.960Z,6.40
2023-01-15T03:54:28.495Z,7.10
2023-01-15T03:57:36.555Z,6.95
2023-01-15T04:00:32.789Z,6.28
2023-01-15T04:03:22.809Z,7.00
2023-01-15T04:06:10.198Z,7.05
2023-01-15T04:08:58.550Z,6.93
2023-01-15T04:11:44.521Z,7.57
2023-01-15T04:14:31.365Z,7.60
2023-01-15T04:17:17.284Z,8.13
2023-01-15T04:20:02.685Z,7.60
2023-01-15T04:22:48.503Z,6.85
2023-01-15T04:25:33.961Z,7.50
2023-01-15T04:28:19.327Z,6.88
2023-01-15T04:31:05.364Z,6.88
2023-01-15T04:33:51.169Z,6.05
2023-01-15T04:36:36.671Z,6.72
2023-01-15T04:39:22.106Z,6.35
2023-01-15T04:42:31.164Z,6.75
2023-01-15T04:45:16.582Z,5.88
2023-01-15T04:48:04.101Z,6.20
2023-01-15T04:50:49.349Z,5.80
2023-01-15T04:53:34.736Z,6.43
2023-01-15T04:56:20.132Z,6.60
2023-01-15T04:59:05.789Z,6.38
2023-01-15T05:02:03.306Z,7.00
2023-01-15T05:04:50.753Z,6.75
2023-01-15T05:07:36.148Z,6.80
2023-01-15T05:10:21.418Z,6.85
2023-01-15T05:13:06.760Z,6.25
2023-01-15T05:15:52.027Z,6.60
2023-01-15T05:18:37.884Z,7.15
2023-01-15T05:21:29.361Z,6.78
2023-01-15T05:24:17.022Z,6.22
2023-01-15T05:27:05.223Z,6.50
2023-01-15T05:29:50.453Z,7.15
2023-01-15T05:32:36.177Z,7.63
2023-01-15T05:35:21.544Z,5.45
2023-01-15T05:38:07.137Z,7.45
2023-01-15T05:40:52.866Z,7.15
2023-01-15T05:43:38.239Z,6.63
2023-01-15T05:46:23.752Z,6.50
2023-01-15T05:49:16.681Z,6.10
2023-01-15T05:52:02.383Z,7.03
2023-01-15T05:54:49.317Z,6.43
2023-01-15T05:57:35.099Z,8.18
2023-01-15T06:00:20.927Z,6.85
2023-01-15T06:03:06.361Z,6.57
2023-01-15T06:05:55.827Z,6.40
2023-01-15T06:08:41.226Z,6.20
2023-01-15T06:11:27.207Z,6.03
2023-01-15T06:14:13.159Z,5.88
2023-01-15T06:16:58.763Z,6.78
2023-01-15T06:19:44.165Z,5.30
2023-01-15T06:22:29.879Z,6.43
2023-01-15T06:25:15.720Z,5.85
2023-01-15T06:28:01.146Z,6.47
2023-01-15T06:30:46.411Z,7.25
2023-01-15T06:33:32.061Z,7.47
2023-01-15T06:36:21.617Z,6.80
2023-01-15T06:39:06.965Z,6.88
2023-01-15T06:42:11.369Z,7.32
2023-01-15T06:45:15.661Z,6.25
2023-01-15T06:48:01.618Z,6.80
2023-01-15T06:50:47.029Z,6.75
2023-01-15T06:53:32.464Z,7.05
2023-01-15T06:56:18.087Z,6.10
2023-01-15T06:59:03.700Z,6.95
2023-01-15T07:01:49.160Z,7.40
2023-01-15T07:04:35.072Z,7.10
2023-01-15T07:07:21.206Z,7.80
2023-01-15T07:10:07.578Z,7.05
2023-01-15T07:12:53.033Z,7.13
2023-01-15T07:15:39.740Z,7.03
2023-01-15T07:18:25.954Z,7.13
2023-01-15T07:21:11.505Z,6.47
2023-01-15T07:24:00.883Z,7.90
2023-01-15T07:26:46.845Z,8.60
2023-01-15T07:29:32.394Z,8.45
2023-01-15T07:32:18.345Z,7.75
2023-01-15T07:35:04.268Z,6.38
2023-01-15T07:37:52.969Z,7.53
2023-01-15T07:40:38.990Z,5.97
2023-01-15T07:43:43.166Z,7.78
2023-01-15T07:46:47.387Z,8.52
2023-01-15T07:49:51.069Z,8.10
2023-01-15T07:52:36.639Z,7.82
2023-01-15T07:55:23.080Z,8.68
2023-01-15T07:58:08.447Z,8.20
2023-01-15T08:00:53.849Z,9.45
2023-01-15T08:03:39.326Z,7.30
2023-01-15T08:06:24.485Z,8.98
2023-01-15T08:09:09.775Z,9.20
2023-01-15T08:12:13.682Z,8.75
2023-01-15T08:15:14.247Z,7.95
2023-01-15T08:17:59.876Z,11.15
2023-01-15T08:20:47.112Z,11.07
2023-01-15T08:23:32.535Z,11.30
2023-01-15T08:26:18.214Z,9.85
2023-01-15T08:29:03.975Z,10.88
2023-01-15T08:31:49.524Z,11.07
2023-01-15T08:34:35.021Z,9.82
2023-01-15T08:37:20.439Z,9.63
2023-01-15T08:40:06.494Z,7.38
2023-01-15T08:42:51.762Z,7.97
2023-01-15T08:45:37.128Z,8.65
2023-01-15T08:48:22.559Z,9.10
2023-01-15T08:51:09.827Z,9.02
2023-01-15T08:53:55.584Z,8.15
2023-01-15T08:56:41.148Z,8.50
2023-01-15T08:59:26.628Z,9.50
2023-01-15T09:02:14.375Z,12.32
2023-01-15T09:04:59.995Z,11.32
2023-01-15T09:07:45.525Z,11.82
2023-01-15T09:10:30.988Z,11.57
2023-01-15T09:13:16.300Z,11.80
2023-01-15T09:16:03.556Z,11.20
2023-01-15T09:18:49.013Z,11.13
2023-01-15T09:21:35.147Z,9.73
2023-01-15T09:24:21.999Z,9.57
2023-01-15T09:27:07.721Z,9.75
2023-01-15T09:29:53.304Z,10.32
2023-01-15T09:32:39.164Z,12.93
2023-01-15T09:35:24.679Z,11.70
2023-01-15T09:38:14.528Z,13.05
2023-01-15T09:41:29.302Z,17.25
2023-01-15T09:44:46.686Z,11.80
2023-01-15T09:47:39.430Z,10.75
2023-01-15T09:50:25.939Z,11.35
2023-01-15T09:53:18.040Z,12.27
2023-01-15T09:56:05.497Z,14.05
2023-01-15T09:58:52.591Z,14.57
2023-01-15T10:01:38.427Z,12.25
2023-01-15T10:04:23.859Z,12.73
2023-01-15T10:07:36.745Z,12.57
2023-01-15T10:10:29.999Z,12.30
2023-01-15T10:13:30.779Z,11.90
2023-01-15T10:16:28.823Z,10.80
2023-01-15T10:19:14.436Z,12.30
2023-01-15T10:22:21.989Z,10.85
2023-01-15T10:25:22.730Z,10.43
2023-01-15T10:28:19.518Z,11.95
2023-01-15T10:31:20.731Z,11.52
2023-01-15T10:34:12.414Z,12.63
2023-01-15T10:37:13.748Z,12.73
2023-01-15T10:40:32.618Z,11.40
2023-01-15T10:43:42.470Z,11.98
2023-01-15T10:46:38.041Z,12.45
2023-01-15T10:49:28.907Z,11.68
2023-01-15T10:52:25.436Z,11.82
2023-01-15T10:55:30.189Z,12.68
2023-01-15T10:58:45.786Z,12.75
2023-01-15T11:01:31.725Z,11.10
2023-01-15T11:04:17.101Z,11.48
2023-01-15T11:07:03.419Z,11.70
2023-01-15T11:09:49.016Z,13.25
2023-01-15T11:12:53.408Z,11.95
2023-01-15T11:15:58.150Z,13.52
2023-01-15T11:19:04.417Z,11.73
2023-01-15T11:21:51.178Z,12.38
2023-01-15T11:24:44.929Z,11.43
2023-01-15T11:27:34.038Z,12.55
2023-01-15T11:30:32.985Z,11.57
2023-01-15T11:33:28.061Z,12.25
2023-01-15T11:36:23.789Z,11.85
2023-01-15T11:39:27.909Z,13.48
2023-01-15T11:42:35.485Z,11.27
2023-01-15T11:45:41.150Z,12.65
2023-01-15T11:48:45.156Z,12.48
2023-01-15T11:51:34.356Z,11.10
2023-01-15T11:54:21.016Z,12.57
2023-01-15T11:57:06.989Z,12.02
2023-01-15T11:59:52.943Z,11.70
2023-01-15T12:02:50.731Z,11.27
2023-01-15T12:05:36.881Z,11.98
2023-01-15T12:08:34.400Z,11.25
2023-01-15T12:11:54.156Z,11.52
2023-01-15T12:14:58.232Z,11.45
2023-01-15T12:18:14.433Z,10.10
2023-01-15T12:21:16.652Z,12.77
2023-01-15T12:24:34.725Z,11.93
2023-01-15T12:27:38.501Z,12.50
2023-01-15T12:30:27.996Z,11.60
2023-01-15T12:33:30.577Z,10.98
2023-01-15T12:36:22.068Z,10.82
2023-01-15T12:39:18.926Z,12.67
2023-01-15T12:42:27.762Z,10.93
2023-01-15T12:45:21.044Z,12.15
2023-01-15T12:48:31.807Z,12.48
2023-01-15T12:51:33.086Z,12.48
2023-01-15T12:54:26.019Z,12.07
2023-01-15T12:57:33.169Z,13.15
2023-01-15T13:00:34.565Z,12.15
2023-01-15T13:03:48.258Z,14.23
2023-01-15T13:06:35.040Z,11.63
2023-01-15T13:09:26.863Z,12.77
2023-01-15T13:12:16.942Z,12.82
2023-01-15T13:15:04.009Z,12.43
2023-01-15T13:18:02.597Z,13.25
2023-01-15T13:20:54.022Z,12.38
2023-01-15T13:24:11.655Z,12.57
2023-01-15T13:27:12.125Z,11.80
2023-01-15T13:30:15.534Z,13.18
2023-01-15T13:33:18.057Z,11.75
2023-01-15T13:36:16.221Z,11.70
2023-01-15T13:39:05.364Z,12.57
2023-01-15T13:42:12.194Z,13.10
2023-01-15T13:45:01.175Z,11.52
2023-01-15T13:47:54.392Z,10.27
2023-01-15T13:50:50.954Z,11.63
2023-01-15T13:53:46.003Z,11.95
2023-01-15T13:56:36.671Z,11.57
2023-01-15T13:59:43.381Z,10.75
2023-01-15T14:02:35.111Z,10.05
2023-01-15T14:05:23.417Z,9.23
2023-01-15T14:08:16.761Z,10.20
2023-01-15T14:11:03.188Z,10.07
2023-01-15T14:14:13.965Z,10.43
2023-01-15T14:17:19.552Z,10.85
2023-01-15T14:20:28.093Z,10.50
2023-01-15T14:23:26.140Z,9.95
2023-01-15T14:26:22.271Z,12.02
2023-01-15T14:29:28.173Z,10.35
2023-01-15T14:32:25.880Z,10.25
2023-01-15T14:35:16.201Z,10.07
2023-01-15T14:38:11.628Z,9.77
2023-01-15T14:41:00.316Z,10.95
2023-01-15T14:43:49.562Z,11.32
2023-01-15T14:46:37.687Z,10.80
2023-01-15T14:49:31.462Z,10.15
2023-01-15T14:52:24.037Z,9.30
2023-01-15T14:55:12.209Z,8.48
2023-01-15T14:58:03.171Z,10.13
2023-01-15T15:00:53.777Z,10.20
2023-01-15T15:03:50.241Z,12.10
2023-01-15T15:06:45.654Z,20.23
2023-01-15T15:09:46.327Z,19.05
2023-01-15T15:12:44.071Z,13.85
2023-01-15T15:15:39.186Z,9.98
2023-01-15T15:18:31.441Z,11.20
2023-01-15T15:21:24.877Z,10.27
2023-01-15T15:24:13.190Z,10.57
2023-01-15T15:27:16.381Z,12.48
2023-01-15T15:30:07.675Z,12.48
2023-01-15T15:32:53.467Z,10.63
2023-01-15T15:35:41.401Z,15.90
2023-01-15T15:38:26.977Z,11.00
2023-01-15T15:41:13.443Z,12.80
2023-01-15T15:44:17.846Z,10.57
2023-01-15T15:47:42.925Z,10.63
2023-01-15T15:50:35.248Z,9.05
2023-01-15T15:53:20.838Z,9.80
2023-01-15T15:56:07.764Z,8.30
2023-01-15T15:58:55.473Z,8.75
2023-01-15T16:01:41.135Z,7.55
2023-01-15T16:04:27.033Z,11.15
2023-01-15T16:07:14.301Z,9.65
2023-01-15T16:10:07.362Z,9.77
2023-01-15T16:12:54.898Z,9.55
2023-01-15T16:15:41.661Z,12.13
2023-01-15T16:18:36.240Z,9.05
2023-01-15T16:21:36.170Z,9.00
2023-01-15T16:24:25.597Z,9.60
2023-01-15T16:27:21.694Z,8.88
2023-01-15T16:30:14.781Z,10.30
2023-01-15T16:33:06.937Z,10.23
2023-01-15T16:36:00.004Z,7.82
2023-01-15T16:38:49.215Z,8.68
2023-01-15T16:41:42.428Z,9.57
2023-01-15T16:44:46.941Z,9.05
2023-01-15T16:47:36.007Z,9.80
2023-01-15T16:50:25.005Z,9.43
2023-01-15T16:53:31.354Z,9.88
2023-01-15T16:56:35.323Z,9.73
2023-01-15T16:59:26.777Z,9.60
2023-01-15T17:02:20.572Z,11.02
2023-01-15T17:05:21.788Z,8.77
2023-01-15T17:08:16.696Z,12.38
2023-01-15T17:11:04.061Z,9.10
2023-01-15T17:13:50.931Z,8.40
2023-01-15T17:16:36.986Z,9.63
2023-01-15T17:19:22.264Z,8.75
2023-01-15T17:22:15.320Z,8.95
2023-01-15T17:25:01.733Z,8.65
2023-01-15T17:27:47.497Z,7.80
2023-01-15T17:30:33.583Z,7.93
2023-01-15T17:33:20.659Z,8.98
2023-01-15T17:36:06.772Z,9.38
2023-01-15T17:38:52.528Z,9.05
2023-01-15T17:41:37.799Z,9.00
2023-01-15T17:44:23.301Z,9.43
2023-01-15T17:47:09.250Z,8.65
2023-01-15T17:49:54.853Z,8.45
2023-01-15T17:52:41.037Z,9.20
2023-01-15T17:55:45.024Z,8.57
2023-01-15T17:58:48.994Z,9.15
2023-01-15T18:01:57.828Z,9.45
2023-01-15T18:05:08.665Z,8.35
2023-01-15T18:07:58.532Z,10.32
2023-01-15T18:10:44.697Z,10.13
2023-01-15T18:13:30.117Z,8.73
2023-01-15T18:16:17.362Z,8.57
2023-01-15T18:19:03.294Z,7.80
2023-01-15T18:21:48.875Z,9.23
2023-01-15T18:24:34.327Z,9.77
2023-01-15T18:27:19.866Z,8.73
2023-01-15T18:30:05.981Z,10.50
2023-01-15T18:32:51.952Z,9.43
2023-01-15T18:35:38.018Z,10.38
2023-01-15T18:38:23.718Z,11.13
2023-01-15T18:41:11.788Z,9.70
2023-01-15T18:44:17.506Z,8.90
2023-01-15T18:47:08.657Z,7.95
2023-01-15T18:49:55.961Z,9.02
2023-01-15T18:52:51.583Z,9.63
2023-01-15T18:55:37.571Z,8.85
2023-01-15T18:58:23.757Z,8.88
2023-01-15T19:01:09.601Z,9.20
2023-01-15T19:03:56.030Z,8.32
2023-01-15T19:06:42.101Z,8.57
2023-01-15T19:09:27.993Z,8.65
2023-01-15T19:12:15.190Z,10.75
2023-01-15T19:15:19.336Z,8.50
2023-01-15T19:18:24.260Z,9.10
2023-01-15T19:21:12.354Z,10.13
2023-01-15T19:23:57.911Z,10.20
2023-01-15T19:26:43.601Z,8.93
2023-01-15T19:29:29.626Z,8.73
2023-01-15T19:32:15.582Z,9.35
2023-01-15T19:35:01.605Z,8.68
2023-01-15T19:37:48.681Z,8.57
2023-01-15T19:40:37.881Z,9.00
2023-01-15T19:43:43.019Z,9.10
2023-01-15T19:46:47.556Z,10.35
2023-01-15T19:49:55.221Z,11.15
2023-01-15T19:52:41.362Z,11.05
2023-01-15T19:55:29.683Z,9.63
2023-01-15T19:58:16.309Z,9.60
2023-01-15T20:01:05.296Z,9.50
2023-01-15T20:03:51.090Z,9.40
2023-01-15T20:06:36.620Z,10.30
2023-01-15T20:09:21.992Z,9.68
2023-01-15T20:12:26.647Z,11.05
2023-01-15T20:15:12.785Z,10.27
2023-01-15T20:17:59.448Z,10.18
2023-01-15T20:20:45.127Z,10.88
2023-01-15T20:23:30.720Z,11.25
2023-01-15T20:26:18.095Z,11.38
2023-01-15T20:29:03.956Z,9.68
2023-01-15T20:31:49.635Z,8.35
2023-01-15T20:34:39.741Z,8.82
2023-01-15T20:37:25.271Z,9.52
2023-01-15T20:40:11.160Z,9.00
2023-01-15T20:43:15.129Z,9.73
2023-01-15T20:46:10.903Z,10.93
2023-01-15T20:49:15.358Z,10.70
2023-01-15T20:52:01.517Z,10.75
2023-01-15T20:54:47.107Z,10.23
2023-01-15T20:57:38.499Z,11.68
2023-01-15T21:00:24.360Z,10.60
2023-01-15T21:03:11.763Z,10.63
2023-01-15T21:05:58.456Z,9.52
2023-01-15T21:08:45.847Z,10.00
2023-01-15T21:11:31.364Z,10.60
2023-01-15T21:14:17.398Z,9.85
2023-01-15T21:17:03.217Z,12.05
2023-01-15T21:19:48.925Z,12.10
2023-01-15T21:22:34.430Z,12.65
2023-01-15T21:25:19.844Z,12.05
2023-01-15T21:28:05.507Z,10.88
2023-01-15T21:30:50.928Z,11.38
2023-01-15T21:33:37.922Z,10.77
2023-01-15T21:36:24.499Z,11.10
2023-01-15T21:39:15.115Z,11.57
2023-01-15T21:42:19.222Z,12.07
2023-01-15T21:45:06.246Z,10.85
2023-01-15T21:47:51.662Z,11.60
2023-01-15T21:50:37.850Z,12.25
2023-01-15T21:53:23.792Z,12.18
2023-01-15T21:56:09.590Z,12.98
2023-01-15T21:58:55.149Z,12.63
2023-01-15T22:01:41.308Z,11.75
2023-01-15T22:04:28.845Z,12.82
2023-01-15T22:07:16.628Z,12.07
2023-01-15T22:10:02.166Z,13.45
2023-01-15T22:12:47.845Z,12.77
2023-01-15T22:15:33.254Z,13.35
2023-01-15T22:18:18.714Z,12.90
2023-01-15T22:21:08.451Z,14.88
2023-01-15T22:23:55.839Z,12.23
2023-01-15T22:26:43.621Z,11.63
2023-01-15T22:29:41.030Z,9.90
2023-01-15T22:32:26.594Z,12.65
2023-01-15T22:35:12.093Z,13.13
2023-01-15T22:37:57.425Z,11.30
2023-01-15T22:40:42.922Z,13.50
2023-01-15T22:43:33.471Z,12.45
2023-01-15T22:46:18.840Z,12.73
2023-01-15T22:49:04.407Z,12.90
2023-01-15T22:51:50.779Z,12.20
2023-01-15T22:54:36.174Z,12.60
2023-01-15T22:57:22.522Z,13.05
2023-01-15T23:00:08.474Z,12.48
2023-01-15T23:03:04.791Z,13.20
2023-01-15T23:05:50.298Z,14.15
2023-01-15T23:08:36.180Z,12.13
2023-01-15T23:11:21.876Z,13.77
2023-01-15T23:14:09.007Z,15.35
2023-01-15T23:16:54.910Z,13.63
2023-01-15T23:19:40.393Z,13.20
2023-01-15T23:22:25.864Z,13.10
2023-01-15T23:25:11.716Z,13.98
2023-01-15T23:27:57.050Z,13.60
2023-01-15T23:30:42.457Z,13.20
2023-01-15T23:33:27.861Z,13.68
2023-01-15T23:36:13.621Z,13.27
2023-01-15T23:38:59.093Z,14.35
2023-01-15T23:42:03.073Z,12.68
2023-01-15T23:45:07.363Z,14.48
2023-01-15T23:47:52.747Z,14.48
2023-01-15T23:50:38.115Z,14.00
2023-01-15T23:53:23.279Z,13.90
2023-01-15T23:56:09.064Z,15.30
2023-01-15T23:58:54.646Z,14.18
